createdAt,value
2018-07-17T00:00:10.483Z,9.97
2018-07-17T00:02:39.817Z,8.80
2018-07-17T00:05:08.749Z,8.70
2018-07-17T00:07:37.216Z,12.60
2018-07-17T00:10:05.819Z,12.10
2018-07-17T00:12:34.078Z,13.40
2018-07-17T00:15:02.481Z,13.93
2018-07-17T00:17:30.829Z,9.07
2018-07-17T00:19:59.097Z,12.30
2018-07-17T00:22:27.432Z,9.90
2018-07-17T00:24:55.721Z,8.23
2018-07-17T00:29:58.533Z,12.73
2018-07-17T00:32:26.823Z,8.57
2018-07-17T00:34:55.505Z,7.97
2018-07-17T00:37:24.036Z,9.43
2018-07-17T00:39:53.275Z,8.27
2018-07-17T00:42:21.596Z,9.70
2018-07-17T00:44:49.884Z,12.33
2018-07-17T00:47:18.160Z,8.27
2018-07-17T00:49:46.429Z,8.90
2018-07-17T00:52:14.701Z,8.23
2018-07-17T00:54:43.011Z,9.00
2018-07-17T00:57:11.261Z,8.10
2018-07-17T00:59:39.508Z,8.03
2018-07-17T01:02:12.951Z,7.47
2018-07-17T01:04:46.331Z,26.93
2018-07-17T01:07:19.754Z,32.37
2018-07-17T01:09:53.147Z,30.70
2018-07-17T01:12:20.653Z,26.27
2018-07-17T01:14:57.493Z,16.87
2018-07-17T01:17:26.264Z,13.97
2018-07-17T01:19:54.576Z,10.53
2018-07-17T01:22:22.856Z,12.33
2018-07-17T01:24:51.134Z,9.00
2018-07-17T01:27:19.434Z,10.37
2018-07-17T01:29:47.681Z,10.97
2018-07-17T01:32:18.950Z,7.93
2018-07-17T01:34:46.943Z,8.30
2018-07-17T01:37:15.208Z,8.27
2018-07-17T01:39:43.509Z,8.93
2018-07-17T01:42:11.800Z,8.03
2018-07-17T01:44:40.153Z,7.57
2018-07-17T01:47:08.519Z,10.53
2018-07-17T01:49:36.793Z,11.00
2018-07-17T01:52:05.137Z,11.37
2018-07-17T01:54:33.441Z,9.73
2018-07-17T01:57:01.700Z,8.17
2018-07-17T01:59:30.085Z,9.73
2018-07-17T02:01:58.361Z,9.47
2018-07-17T02:04:26.614Z,11.07
2018-07-17T02:06:54.961Z,8.70
2018-07-17T02:09:23.226Z,9.73
2018-07-17T02:11:51.213Z,14.87
2018-07-17T02:14:19.476Z,9.40
2018-07-17T02:16:47.732Z,8.80
2018-07-17T02:19:15.716Z,9.47
2018-07-17T02:21:44.014Z,13.43
2018-07-17T02:24:12.273Z,16.30
2018-07-17T02:26:40.580Z,8.93
2018-07-17T02:29:08.849Z,11.00
2018-07-17T02:31:37.169Z,9.03
2018-07-17T02:34:05.545Z,9.50
2018-07-17T02:36:33.820Z,14.10
2018-07-17T02:39:02.119Z,13.17
2018-07-17T02:41:30.121Z,11.57
2018-07-17T02:43:58.464Z,13.27
2018-07-17T02:46:26.749Z,9.67
2018-07-17T02:48:55.043Z,10.23
2018-07-17T02:51:23.306Z,10.70
2018-07-17T02:53:51.564Z,10.53
2018-07-17T02:56:19.544Z,9.83
2018-07-17T02:58:47.910Z,10.33
2018-07-17T03:01:16.185Z,10.30
2018-07-17T03:03:44.505Z,9.80
2018-07-17T03:06:12.741Z,9.80
2018-07-17T03:08:41.102Z,11.60
2018-07-17T03:11:09.373Z,9.83
2018-07-17T03:13:37.677Z,10.00
2018-07-17T03:16:05.687Z,10.10
2018-07-17T03:18:34.241Z,10.23
2018-07-17T03:21:02.501Z,9.90
2018-07-17T03:23:30.755Z,10.40
2018-07-17T03:25:59.033Z,10.00
2018-07-17T03:28:27.313Z,9.73
2018-07-17T03:30:55.566Z,9.87
2018-07-17T03:33:23.908Z,9.90
2018-07-17T03:35:52.182Z,9.97
2018-07-17T03:38:20.461Z,10.00
2018-07-17T03:40:48.793Z,10.30
2018-07-17T03:43:17.091Z,9.93
2018-07-17T03:45:45.396Z,9.43
2018-07-17T03:48:13.668Z,9.57
2018-07-17T03:50:41.964Z,15.13
2018-07-17T03:53:10.237Z,14.07
2018-07-17T03:55:38.501Z,10.23
2018-07-17T03:58:06.793Z,12.10
2018-07-17T04:00:34.784Z,13.40
2018-07-17T04:03:03.121Z,12.20
2018-07-17T04:05:31.428Z,11.43
2018-07-17T04:07:59.798Z,12.10
2018-07-17T04:10:28.160Z,9.73
2018-07-17T04:12:56.416Z,9.57
2018-07-17T04:15:24.670Z,10.07
2018-07-17T04:17:52.949Z,8.57
2018-07-17T04:20:21.193Z,8.97
2018-07-17T04:22:49.454Z,8.73
2018-07-17T04:25:17.717Z,8.40
2018-07-17T04:27:45.953Z,8.57
2018-07-17T04:30:14.235Z,9.00
2018-07-17T04:32:43.005Z,8.57
2018-07-17T04:35:11.248Z,9.13
2018-07-17T04:37:39.496Z,8.23
2018-07-17T04:40:07.811Z,9.00
2018-07-17T04:42:36.075Z,9.40
2018-07-17T04:45:04.432Z,10.40
2018-07-17T04:47:32.696Z,9.37
2018-07-17T04:50:01.009Z,8.97
2018-07-17T04:52:29.269Z,8.50
2018-07-17T04:54:57.531Z,9.13
2018-07-17T04:57:25.933Z,8.70
2018-07-17T04:59:54.215Z,8.40
2018-07-17T05:02:22.519Z,8.83
2018-07-17T05:04:50.808Z,8.43
2018-07-17T05:07:19.056Z,8.60
2018-07-17T05:09:47.345Z,7.33
2018-07-17T05:12:15.597Z,7.50
2018-07-17T05:14:43.882Z,8.23
2018-07-17T05:17:12.131Z,7.07
2018-07-17T05:19:40.382Z,7.70
2018-07-17T05:22:08.646Z,7.63
2018-07-17T05:24:36.927Z,8.23
2018-07-17T05:27:05.641Z,8.10
2018-07-17T05:29:34.927Z,6.87
2018-07-17T05:32:03.277Z,7.47
2018-07-17T05:34:31.590Z,7.47
2018-07-17T05:37:00.563Z,7.40
2018-07-17T05:39:29.676Z,7.90
2018-07-17T05:41:58.450Z,7.43
2018-07-17T05:44:26.696Z,7.50
2018-07-17T05:46:54.996Z,7.20
2018-07-17T05:49:23.701Z,8.73
2018-07-17T05:51:51.985Z,9.07
2018-07-17T05:54:20.232Z,9.00
2018-07-17T05:56:48.239Z,8.30
2018-07-17T05:59:16.693Z,8.97
2018-07-17T06:01:45.722Z,8.90
2018-07-17T06:04:14.626Z,10.03
2018-07-17T06:06:43.785Z,8.20
2018-07-17T06:09:12.212Z,9.20
2018-07-17T06:11:40.532Z,9.47
2018-07-17T06:14:08.837Z,12.27
2018-07-17T06:16:37.084Z,9.20
2018-07-17T06:19:05.573Z,11.20
2018-07-17T06:21:33.789Z,10.60
2018-07-17T06:24:02.081Z,10.43
2018-07-17T06:26:30.340Z,8.60
2018-07-17T06:28:58.611Z,9.57
2018-07-17T06:31:26.897Z,9.83
2018-07-17T06:33:55.293Z,8.93
2018-07-17T06:36:23.600Z,8.60
2018-07-17T06:38:51.937Z,7.93
2018-07-17T06:41:20.161Z,8.37
2018-07-17T06:43:48.417Z,9.27
2018-07-17T06:46:16.709Z,7.70
2018-07-17T06:48:44.983Z,9.07
2018-07-17T06:51:13.239Z,8.57
2018-07-17T06:53:41.572Z,8.63
2018-07-17T06:56:09.854Z,9.07
2018-07-17T06:58:38.131Z,10.07
2018-07-17T07:01:06.438Z,8.80
2018-07-17T07:03:34.697Z,8.40
2018-07-17T07:06:02.980Z,7.30
2018-07-17T07:08:31.236Z,8.33
2018-07-17T07:10:59.601Z,9.70
2018-07-17T07:13:27.920Z,7.73
2018-07-17T07:15:56.190Z,6.93
2018-07-17T07:18:24.457Z,7.40
2018-07-17T07:20:52.745Z,7.50
2018-07-17T07:23:21.048Z,7.63
2018-07-17T07:25:49.325Z,10.07
2018-07-17T07:28:17.642Z,8.07
2018-07-17T07:30:45.904Z,7.27
2018-07-17T07:33:14.205Z,6.80
2018-07-17T07:35:42.503Z,7.53
2018-07-17T07:38:10.784Z,6.70
2018-07-17T07:40:39.066Z,7.30
2018-07-17T07:43:07.344Z,9.57
2018-07-17T07:45:35.629Z,6.63
2018-07-17T07:48:03.924Z,7.00
2018-07-17T07:50:32.201Z,6.87
2018-07-17T07:53:00.472Z,5.87
2018-07-17T07:55:28.801Z,8.53
2018-07-17T07:57:57.029Z,6.80
2018-07-17T08:02:59.931Z,6.50
2018-07-17T08:05:28.193Z,6.33
2018-07-17T08:07:56.452Z,6.90
2018-07-17T08:10:24.772Z,5.97
2018-07-17T08:12:53.056Z,6.37
2018-07-17T08:15:21.316Z,6.37
2018-07-17T08:17:49.580Z,6.23
2018-07-17T08:20:17.855Z,6.77
2018-07-17T08:22:46.161Z,7.90
2018-07-17T08:25:14.680Z,6.27
2018-07-17T08:27:44.003Z,7.23
2018-07-17T08:30:12.261Z,7.50
2018-07-17T08:32:40.516Z,8.37
2018-07-17T08:35:09.023Z,6.37
2018-07-17T08:37:37.380Z,8.90
2018-07-17T08:40:05.821Z,5.73
2018-07-17T08:42:34.084Z,6.00
2018-07-17T08:45:02.337Z,5.77
2018-07-17T08:47:30.643Z,8.33
2018-07-17T08:49:58.921Z,6.10
2018-07-17T08:52:27.189Z,6.13
2018-07-17T08:54:55.529Z,5.80
2018-07-17T08:57:23.777Z,6.30
2018-07-17T08:59:52.009Z,5.17
2018-07-17T09:02:20.333Z,5.20
2018-07-17T09:04:48.582Z,6.33
2018-07-17T09:07:16.849Z,6.03
2018-07-17T09:09:45.129Z,5.20
2018-07-17T09:12:13.388Z,5.80
2018-07-17T09:14:41.648Z,5.43
2018-07-17T09:17:09.926Z,5.50
2018-07-17T09:19:38.310Z,5.10
2018-07-17T09:22:06.861Z,6.07
2018-07-17T09:24:35.152Z,5.40
2018-07-17T09:27:03.453Z,4.77
2018-07-17T09:29:31.711Z,4.60
2018-07-17T09:31:59.992Z,8.83
2018-07-17T09:34:28.265Z,5.67
2018-07-17T09:36:56.283Z,4.60
2018-07-17T09:39:25.315Z,4.90
2018-07-17T09:41:53.342Z,3.97
2018-07-17T09:44:21.416Z,7.67
2018-07-17T09:46:49.400Z,4.30
2018-07-17T09:49:17.700Z,4.43
2018-07-17T09:51:45.981Z,7.53
2018-07-17T09:54:14.273Z,5.03
2018-07-17T09:56:42.540Z,4.97
2018-07-17T09:59:10.826Z,7.70
2018-07-17T10:01:44.445Z,4.97
2018-07-17T10:04:12.742Z,4.30
2018-07-17T10:06:41.081Z,4.63
2018-07-17T10:09:09.376Z,4.40
2018-07-17T10:11:37.645Z,5.53
2018-07-17T10:14:06.029Z,6.37
2018-07-17T10:16:34.357Z,3.67
2018-07-17T10:19:02.618Z,4.33
2018-07-17T10:21:30.862Z,9.10
2018-07-17T10:23:59.121Z,5.60
2018-07-17T10:26:27.499Z,4.50
2018-07-17T10:28:55.800Z,4.10
2018-07-17T10:31:24.223Z,3.70
2018-07-17T10:33:52.610Z,3.73
2018-07-17T10:36:25.461Z,3.40
2018-07-17T10:38:53.861Z,4.17
2018-07-17T10:41:22.998Z,4.87
2018-07-17T10:43:52.256Z,4.03
2018-07-17T10:46:21.192Z,5.13
2018-07-17T10:48:51.211Z,4.80
2018-07-17T10:51:19.967Z,7.37
2018-07-17T10:53:48.732Z,5.53
2018-07-17T10:56:20.312Z,4.20
2018-07-17T10:58:54.998Z,4.43
2018-07-17T11:01:31.287Z,3.90
2018-07-17T11:04:03.746Z,3.80
2018-07-17T11:06:40.427Z,7.03
2018-07-17T11:09:13.848Z,3.70
2018-07-17T11:11:43.623Z,3.77
2018-07-17T11:14:16.513Z,4.40
2018-07-17T11:16:45.095Z,3.63
2018-07-17T11:19:14.115Z,3.97
2018-07-17T11:21:43.203Z,4.30
2018-07-17T11:24:14.397Z,5.17
2018-07-17T11:26:51.441Z,4.00
2018-07-17T11:29:24.335Z,5.53
2018-07-17T11:31:58.528Z,3.97
2018-07-17T11:34:27.762Z,4.67
2018-07-17T11:36:56.971Z,3.90
2018-07-17T11:39:25.893Z,3.73
2018-07-17T11:42:02.044Z,3.60
2018-07-17T11:44:32.092Z,3.67
2018-07-17T11:47:01.322Z,6.10
2018-07-17T11:49:31.437Z,4.20
2018-07-17T11:52:00.086Z,3.60
2018-07-17T11:54:28.340Z,4.63
2018-07-17T11:56:56.339Z,5.47
2018-07-17T11:59:24.816Z,3.20
2018-07-17T12:01:52.961Z,3.27
2018-07-17T12:04:21.237Z,5.93
2018-07-17T12:06:49.525Z,2.70
2018-07-17T12:09:17.973Z,4.57
2018-07-17T12:11:46.805Z,2.90
2018-07-17T12:14:15.873Z,3.53
2018-07-17T12:16:45.695Z,3.50
2018-07-17T12:19:14.544Z,5.10
2018-07-17T12:21:43.162Z,3.67
2018-07-17T12:24:11.420Z,3.57
2018-07-17T12:26:39.777Z,4.17
2018-07-17T12:29:12.572Z,4.53
2018-07-17T12:31:40.820Z,3.60
2018-07-17T12:34:09.068Z,3.93
2018-07-17T12:36:37.377Z,6.53
2018-07-17T12:39:09.913Z,6.60
2018-07-17T12:41:38.784Z,4.17
2018-07-17T12:44:09.675Z,4.10
2018-07-17T12:46:38.012Z,4.10
2018-07-17T12:49:06.322Z,5.17
2018-07-17T12:51:34.317Z,3.97
2018-07-17T12:54:03.605Z,6.27
2018-07-17T12:56:31.917Z,7.10
2018-07-17T12:59:00.211Z,6.00
2018-07-17T13:01:28.520Z,4.60
2018-07-17T13:04:01.440Z,3.30
2018-07-17T13:06:30.069Z,3.17
2018-07-17T13:08:58.375Z,6.30
2018-07-17T13:11:26.616Z,4.50
2018-07-17T13:13:54.891Z,3.13
2018-07-17T13:16:23.156Z,3.23
2018-07-17T13:18:51.543Z,4.20
2018-07-17T13:21:19.838Z,2.80
2018-07-17T13:23:48.307Z,4.43
2018-07-17T13:26:16.575Z,5.23
2018-07-17T13:28:44.851Z,2.60
2018-07-17T13:31:13.450Z,2.37
2018-07-17T13:33:41.714Z,3.80
2018-07-17T13:36:10.217Z,4.47
2018-07-17T13:38:39.281Z,3.50
2018-07-17T13:41:10.050Z,3.50
2018-07-17T13:43:38.746Z,5.33
2018-07-17T13:46:07.436Z,3.57
2018-07-17T13:48:37.739Z,3.37
2018-07-17T13:51:06.425Z,4.70
2018-07-17T13:53:36.358Z,4.17
2018-07-17T13:56:04.957Z,2.57
2018-07-17T13:58:33.640Z,3.97
2018-07-17T14:01:03.710Z,2.60
2018-07-17T14:03:32.352Z,3.03
2018-07-17T14:06:01.058Z,2.80
2018-07-17T14:08:30.129Z,2.60
2018-07-17T14:10:58.819Z,2.63
2018-07-17T14:13:27.010Z,3.17
2018-07-17T14:15:57.334Z,3.03
2018-07-17T14:18:26.083Z,3.30
2018-07-17T14:20:54.918Z,2.50
2018-07-17T14:23:23.505Z,4.57
2018-07-17T14:25:52.319Z,2.90
2018-07-17T14:28:20.949Z,2.73
2018-07-17T14:30:49.373Z,4.47
2018-07-17T14:33:18.055Z,3.50
2018-07-17T14:35:46.776Z,3.57
2018-07-17T14:38:15.383Z,3.33
2018-07-17T14:40:44.713Z,3.40
2018-07-17T14:43:13.392Z,3.50
2018-07-17T14:45:41.602Z,3.33
2018-07-17T14:48:10.371Z,4.20
2018-07-17T14:50:39.024Z,6.67
2018-07-17T14:53:07.705Z,4.50
2018-07-17T14:55:36.003Z,3.63
2018-07-17T14:58:04.749Z,5.03
2018-07-17T15:00:33.604Z,4.20
2018-07-17T15:03:02.261Z,5.73
2018-07-17T15:05:30.899Z,4.80
2018-07-17T15:07:59.511Z,5.20
2018-07-17T15:10:28.159Z,5.17
2018-07-17T15:12:56.798Z,6.03
2018-07-17T15:15:25.381Z,5.20
2018-07-17T15:17:53.925Z,5.67
2018-07-17T15:20:22.611Z,6.77
2018-07-17T15:22:51.220Z,8.53
2018-07-17T15:25:19.930Z,5.80
2018-07-17T15:27:48.761Z,6.13
2018-07-17T15:30:17.312Z,5.77
2018-07-17T15:32:45.965Z,4.97
2018-07-17T15:35:14.609Z,5.57
2018-07-17T15:37:43.221Z,3.97
2018-07-17T15:40:11.794Z,3.70
2018-07-17T15:42:40.380Z,3.20
2018-07-17T15:45:08.967Z,3.87
2018-07-17T15:47:37.556Z,5.00
2018-07-17T15:50:05.964Z,3.47
2018-07-17T15:52:34.221Z,4.37
2018-07-17T15:55:02.526Z,4.17
2018-07-17T15:57:30.757Z,4.80
2018-07-17T15:59:59.097Z,4.53
2018-07-17T16:02:27.288Z,5.03
2018-07-17T16:04:55.568Z,3.17
2018-07-17T16:07:23.872Z,3.93
2018-07-17T16:09:52.205Z,3.60
2018-07-17T16:12:20.470Z,4.30
2018-07-17T16:14:48.741Z,3.93
2018-07-17T16:17:17.072Z,4.63
2018-07-17T16:19:45.320Z,4.70
2018-07-17T16:22:13.591Z,4.43
2018-07-17T16:24:41.853Z,4.30
2018-07-17T16:27:10.114Z,3.67
2018-07-17T16:29:38.388Z,4.00
2018-07-17T16:32:06.741Z,4.20
2018-07-17T16:34:35.089Z,3.80
2018-07-17T16:37:03.332Z,3.87
2018-07-17T16:39:31.592Z,3.00
2018-07-17T16:41:59.905Z,3.83
2018-07-17T16:44:28.189Z,4.78
2018-07-17T16:46:56.464Z,3.20
2018-07-17T16:49:24.749Z,6.25
2018-07-17T16:51:52.992Z,3.50
2018-07-17T16:54:21.240Z,5.57
2018-07-17T16:56:49.524Z,3.93
2018-07-17T16:59:17.808Z,3.87
2018-07-17T17:01:46.086Z,3.40
2018-07-17T17:04:14.432Z,4.93
2018-07-17T17:06:42.685Z,4.33
2018-07-17T17:09:11.965Z,3.58
2018-07-17T17:11:40.260Z,3.30
2018-07-17T17:14:08.564Z,3.60
2018-07-17T17:16:36.868Z,3.17
2018-07-17T17:19:05.172Z,3.83
2018-07-17T17:21:33.428Z,3.50
2018-07-17T17:24:01.837Z,3.60
2018-07-17T17:26:29.977Z,3.60
2018-07-17T17:28:58.236Z,3.87
2018-07-17T17:31:26.496Z,3.17
2018-07-17T17:33:54.788Z,3.43
2018-07-17T17:36:23.052Z,3.13
2018-07-17T17:38:51.301Z,2.90
2018-07-17T17:41:19.568Z,3.90
2018-07-17T17:43:47.828Z,6.17
2018-07-17T17:46:16.080Z,4.17
2018-07-17T17:48:44.370Z,5.73
2018-07-17T17:51:12.622Z,4.43
2018-07-17T17:53:40.928Z,5.93
2018-07-17T17:56:09.184Z,6.97
2018-07-17T17:58:37.437Z,6.83
2018-07-17T18:01:05.715Z,7.93
2018-07-17T18:03:34.061Z,6.57
2018-07-17T18:06:02.272Z,5.77
2018-07-17T18:08:30.577Z,6.17
2018-07-17T18:10:58.842Z,5.23
2018-07-17T18:13:27.112Z,4.80
2018-07-17T18:15:55.385Z,4.37
2018-07-17T18:18:23.377Z,5.10
2018-07-17T18:20:51.380Z,5.70
2018-07-17T18:23:19.653Z,5.03
2018-07-17T18:25:47.920Z,5.80
2018-07-17T18:28:16.209Z,4.77
2018-07-17T18:30:44.492Z,4.53
2018-07-17T18:33:12.892Z,4.27
2018-07-17T18:35:41.145Z,5.47
2018-07-17T18:38:09.532Z,6.07
2018-07-17T18:40:37.860Z,5.77
2018-07-17T18:43:06.252Z,4.60
2018-07-17T18:45:34.500Z,4.73
2018-07-17T18:48:02.847Z,5.30
2018-07-17T18:50:31.155Z,4.03
2018-07-17T18:52:59.519Z,4.60
2018-07-17T18:55:27.789Z,4.30
2018-07-17T18:57:56.065Z,5.13
2018-07-17T19:00:24.348Z,4.20
2018-07-17T19:02:52.697Z,4.83
2018-07-17T19:05:20.964Z,5.53
2018-07-17T19:07:49.233Z,4.87
2018-07-17T19:10:17.778Z,5.03
2018-07-17T19:12:46.136Z,4.47
2018-07-17T19:15:14.411Z,4.97
2018-07-17T19:17:42.682Z,4.23
2018-07-17T19:20:11.118Z,4.00
2018-07-17T19:22:39.462Z,4.53
2018-07-17T19:25:07.740Z,4.73
2018-07-17T19:27:36.176Z,4.50
2018-07-17T19:30:04.803Z,4.47
2018-07-17T19:32:32.992Z,4.83
2018-07-17T19:35:01.265Z,4.10
2018-07-17T19:37:29.533Z,4.43
2018-07-17T19:39:57.862Z,5.03
2018-07-17T19:42:26.153Z,4.10
2018-07-17T19:44:54.408Z,4.67
2018-07-17T19:47:22.704Z,4.00
2018-07-17T19:49:51.037Z,4.33
2018-07-17T19:52:19.296Z,4.20
2018-07-17T19:54:47.593Z,4.30
2018-07-17T19:57:16.127Z,4.13
2018-07-17T19:59:44.384Z,4.13
2018-07-17T20:02:12.686Z,3.90
2018-07-17T20:04:40.964Z,4.27
2018-07-17T20:07:09.220Z,4.93
2018-07-17T20:09:37.517Z,4.30
2018-07-17T20:12:06.073Z,5.17
2018-07-17T20:14:34.358Z,4.23
2018-07-17T20:17:02.617Z,4.07
2018-07-17T20:19:30.885Z,3.90
2018-07-17T20:21:59.244Z,4.00
2018-07-17T20:24:27.560Z,4.07
2018-07-17T20:26:55.812Z,4.33
2018-07-17T20:29:24.096Z,4.10
2018-07-17T20:31:52.373Z,4.70
2018-07-17T20:34:20.637Z,4.90
2018-07-17T20:36:49.006Z,5.17
2018-07-17T20:39:17.266Z,4.07
2018-07-17T20:41:45.520Z,4.80
2018-07-17T20:44:13.833Z,4.50
2018-07-17T20:46:42.103Z,3.90
2018-07-17T20:49:10.384Z,3.80
2018-07-17T20:51:38.653Z,4.27
2018-07-17T20:54:07.792Z,4.40
2018-07-17T20:56:36.053Z,4.33
2018-07-17T20:59:04.308Z,4.27
2018-07-17T21:01:32.345Z,4.53
2018-07-17T21:04:01.337Z,4.23
2018-07-17T21:06:29.620Z,4.50
2018-07-17T21:08:57.875Z,4.30
2018-07-17T21:11:26.348Z,4.30
2018-07-17T21:13:54.607Z,4.43
2018-07-17T21:16:22.827Z,5.17
2018-07-17T21:18:51.164Z,3.67
2018-07-17T21:21:19.434Z,3.87
2018-07-17T21:23:47.700Z,4.40
2018-07-17T21:26:16.043Z,6.00
2018-07-17T21:28:44.302Z,3.80
2018-07-17T21:31:12.608Z,3.90
2018-07-17T21:33:41.208Z,4.00
2018-07-17T21:36:09.467Z,3.97
2018-07-17T21:38:37.716Z,3.70
2018-07-17T21:41:05.964Z,3.57
2018-07-17T21:43:34.220Z,4.43
2018-07-17T21:46:02.497Z,4.10
2018-07-17T21:48:30.792Z,4.17
2018-07-17T21:50:59.087Z,4.47
2018-07-17T21:53:27.401Z,3.93
2018-07-17T21:55:55.668Z,4.73
2018-07-17T21:58:23.926Z,3.60
2018-07-17T22:00:52.852Z,4.47
2018-07-17T22:03:21.419Z,4.43
2018-07-17T22:05:49.704Z,4.87
2018-07-17T22:08:17.946Z,4.00
2018-07-17T22:10:46.199Z,3.77
2018-07-17T22:13:14.208Z,4.23
2018-07-17T22:15:42.501Z,5.10
2018-07-17T22:18:10.772Z,3.80
2018-07-17T22:20:39.028Z,3.50
2018-07-17T22:23:07.301Z,4.40
2018-07-17T22:25:36.208Z,3.70
2018-07-17T22:28:04.643Z,4.20
2018-07-17T22:30:32.868Z,5.20
2018-07-17T22:33:01.130Z,3.80
2018-07-17T22:35:29.544Z,3.80
2018-07-17T22:37:57.821Z,4.10
2018-07-17T22:40:26.110Z,4.10
2018-07-17T22:42:54.353Z,4.10
2018-07-17T22:45:22.599Z,4.53
2018-07-17T22:47:50.873Z,4.40
2018-07-17T22:50:19.249Z,4.77
2018-07-17T22:52:47.440Z,4.53
2018-07-17T22:55:15.857Z,4.30
2018-07-17T22:57:44.272Z,4.60
2018-07-17T23:00:12.810Z,4.70
2018-07-17T23:02:41.102Z,4.37
2018-07-17T23:05:09.352Z,6.17
2018-07-17T23:07:37.621Z,5.60
2018-07-17T23:10:05.889Z,4.13
2018-07-17T23:12:34.199Z,4.40
2018-07-17T23:15:02.458Z,4.20
2018-07-17T23:17:30.712Z,4.80
2018-07-17T23:19:58.989Z,4.33
2018-07-17T23:22:40.212Z,4.40
2018-07-17T23:25:08.576Z,4.30
2018-07-17T23:27:36.881Z,4.53
2018-07-17T23:30:05.255Z,4.77
2018-07-17T23:32:33.539Z,4.60
2018-07-17T23:35:01.797Z,4.43
2018-07-17T23:37:30.067Z,4.40
2018-07-17T23:39:58.327Z,4.33
2018-07-17T23:42:26.664Z,3.87
2018-07-17T23:44:54.937Z,4.90
2018-07-17T23:47:23.189Z,4.60
2018-07-17T23:49:51.545Z,4.60
2018-07-17T23:52:26.075Z,4.33
2018-07-17T23:54:54.333Z,4.47
2018-07-17T23:57:22.629Z,4.60
2018-07-17T23:59:50.933Z,5.37
